createdAt,value
2023-03-28T00:00:52.369Z,1.74
2023-03-28T00:03:22.490Z,1.72
2023-03-28T00:05:51.303Z,1.80
2023-03-28T00:08:18.706Z,1.80
2023-03-28T00:10:45.993Z,1.80
2023-03-28T00:13:19.795Z,1.73
2023-03-28T00:15:48.278Z,1.77
2023-03-28T00:18:15.612Z,1.76
2023-03-28T00:20:43.678Z,1.72
2023-03-28T00:23:12.496Z,1.69
2023-03-28T00:25:41.738Z,1.62
2023-03-28T00:28:09.264Z,1.57
2023-03-28T00:30:36.594Z,1.57
2023-03-28T00:33:05.503Z,1.50
2023-03-28T00:35:33.172Z,1.44
2023-03-28T00:38:00.393Z,1.42
2023-03-28T00:40:27.682Z,1.29
2023-03-28T00:42:54.787Z,1.35
2023-03-28T00:45:22.739Z,1.34
2023-03-28T00:47:54.755Z,1.35
2023-03-28T00:50:27.463Z,1.31
2023-03-28T00:53:13.816Z,1.32
2023-03-28T00:55:57.523Z,1.21
2023-03-28T00:58:27.533Z,1.29
2023-03-28T01:00:56.925Z,1.29
2023-03-28T01:03:28.870Z,1.26
2023-03-28T01:05:57.576Z,1.24
2023-03-28T01:08:28.336Z,1.19
2023-03-28T01:10:56.163Z,1.14
2023-03-28T01:13:31.763Z,1.07
2023-03-28T01:15:59.663Z,1.05
2023-03-28T01:18:26.986Z,1.07
2023-03-28T01:21:06.612Z,1.06
2023-03-28T01:24:11.390Z,1.05
2023-03-28T01:26:56.313Z,1.02
2023-03-28T01:29:23.298Z,0.99
2023-03-28T01:32:21.067Z,1.01
2023-03-28T01:35:26.299Z,1.02
2023-03-28T01:38:14.914Z,1.03
2023-03-28T01:41:04.636Z,1.01
2023-03-28T01:43:50.636Z,1.01
2023-03-28T01:46:31.466Z,0.99
2023-03-28T01:49:41.910Z,0.92
2023-03-28T01:52:19.643Z,0.86
2023-03-28T01:55:05.362Z,0.83
2023-03-28T01:58:16.866Z,0.85
2023-03-28T02:00:47.906Z,0.88
2023-03-28T02:03:36.562Z,0.84
2023-03-28T02:06:08.572Z,0.85
2023-03-28T02:08:39.780Z,0.77
2023-03-28T02:11:09.997Z,0.75
2023-03-28T02:13:43.802Z,0.72
2023-03-28T02:16:13.302Z,0.70
2023-03-28T02:18:45.816Z,0.70
2023-03-28T02:21:28.110Z,0.69
2023-03-28T02:23:56.236Z,0.53
2023-03-28T02:26:25.879Z,0.55
2023-03-28T02:28:56.962Z,0.51
2023-03-28T02:31:24.922Z,0.51
2023-03-28T02:33:53.358Z,0.53
2023-03-28T02:36:38.934Z,0.48
2023-03-28T02:39:05.886Z,0.52
2023-03-28T02:42:20.650Z,0.57
2023-03-28T02:44:50.325Z,0.60
2023-03-28T02:47:44.918Z,0.60
2023-03-28T02:50:36.730Z,0.57
2023-03-28T02:53:09.892Z,0.46
2023-03-28T02:55:58.417Z,0.46
2023-03-28T02:58:42.360Z,0.41
2023-03-28T03:01:10.514Z,0.52
2023-03-28T03:03:38.194Z,0.51
2023-03-28T03:06:06.548Z,0.52
2023-03-28T03:08:33.825Z,0.51
2023-03-28T03:11:01.137Z,0.54
2023-03-28T03:13:28.169Z,0.52
2023-03-28T03:15:56.257Z,0.50
2023-03-28T03:18:23.915Z,0.47
2023-03-28T03:20:51.053Z,0.47
2023-03-28T03:23:18.486Z,0.42
2023-03-28T03:25:46.629Z,0.44
2023-03-28T03:28:13.715Z,0.49
2023-03-28T03:30:40.846Z,0.53
2023-03-28T03:33:10.336Z,0.49
2023-03-28T03:35:38.744Z,0.54
2023-03-28T03:38:06.070Z,0.56
2023-03-28T03:40:33.197Z,0.57
2023-03-28T03:43:00.265Z,0.52
2023-03-28T03:45:27.339Z,0.48
2023-03-28T03:47:54.517Z,0.43
2023-03-28T03:50:21.707Z,0.39
2023-03-28T03:52:48.783Z,0.47
2023-03-28T03:55:15.915Z,0.49
2023-03-28T03:57:42.968Z,0.52
2023-03-28T04:00:13.259Z,0.39
2023-03-28T04:02:40.950Z,0.46
2023-03-28T04:05:08.919Z,0.40
2023-03-28T04:07:36.492Z,0.41
2023-03-28T04:10:04.880Z,0.39
2023-03-28T04:12:31.942Z,0.36
2023-03-28T04:14:59.050Z,0.36
2023-03-28T04:17:30.110Z,0.36
2023-03-28T04:19:57.549Z,0.31
2023-03-28T04:22:29.996Z,0.29
2023-03-28T04:24:57.481Z,0.34
2023-03-28T04:27:31.304Z,0.23
2023-03-28T04:30:00.774Z,0.24
2023-03-28T04:32:27.979Z,0.29
2023-03-28T04:34:55.122Z,0.23
2023-03-28T04:37:22.545Z,0.24
2023-03-28T04:39:54.035Z,0.18
2023-03-28T04:42:22.125Z,0.15
2023-03-28T04:44:49.229Z,0.20
2023-03-28T04:47:26.363Z,0.17
2023-03-28T04:49:54.184Z,0.12
2023-03-28T05:00:27.970Z,0.05
2023-03-28T05:02:56.088Z,0.08
2023-03-28T05:05:23.508Z,0.06
2023-03-28T05:07:51.652Z,0.10
2023-03-28T05:10:18.812Z,0.07
2023-03-28T05:12:45.940Z,0.08
2023-03-28T05:15:21.232Z,0.07
2023-03-28T05:17:51.097Z,0.06
2023-03-28T05:20:20.038Z,0.02
2023-03-28T05:22:48.060Z,-0.03
2023-03-28T05:25:15.324Z,-0.02
2023-03-28T05:27:42.692Z,0.00
2023-03-28T05:30:10.661Z,0.02
2023-03-28T05:32:38.922Z,0.07
2023-03-28T05:35:09.005Z,0.14
2023-03-28T05:37:37.544Z,0.14
2023-03-28T05:40:08.962Z,0.18
2023-03-28T05:42:36.131Z,0.23
2023-03-28T05:45:08.247Z,0.24
2023-03-28T05:47:36.223Z,0.24
2023-03-28T05:50:04.389Z,0.31
2023-03-28T05:52:31.510Z,0.31
2023-03-28T05:54:58.586Z,0.37
2023-03-28T05:57:25.663Z,0.42
2023-03-28T05:59:53.805Z,0.44
2023-03-28T06:02:23.572Z,0.42
2023-03-28T06:04:52.758Z,0.47
2023-03-28T06:07:25.503Z,0.53
2023-03-28T06:09:58.913Z,0.64
2023-03-28T06:12:25.960Z,0.67
2023-03-28T06:14:53.254Z,0.74
2023-03-28T06:17:20.874Z,0.79
2023-03-28T06:19:48.039Z,0.86
2023-03-28T06:22:15.282Z,0.96
2023-03-28T06:24:42.389Z,1.10
2023-03-28T06:27:10.096Z,1.24
2023-03-28T06:29:37.146Z,1.32
2023-03-28T06:32:04.463Z,1.44
2023-03-28T06:34:31.822Z,1.52
2023-03-28T06:37:00.294Z,1.62
2023-03-28T06:39:27.535Z,1.83
2023-03-28T06:41:54.627Z,2.00
2023-03-28T06:44:21.634Z,2.03
2023-03-28T06:46:48.784Z,2.09
2023-03-28T06:49:15.861Z,2.31
2023-03-28T06:51:42.871Z,2.44
2023-03-28T06:54:10.374Z,2.46
2023-03-28T06:56:37.906Z,2.49
2023-03-28T06:59:05.370Z,2.69
2023-03-28T07:01:32.829Z,2.78
2023-03-28T07:04:00.236Z,2.90
2023-03-28T07:06:27.880Z,2.93
2023-03-28T07:08:57.291Z,3.06
2023-03-28T07:11:24.445Z,3.01
2023-03-28T07:13:51.526Z,2.99
2023-03-28T07:16:18.988Z,2.92
2023-03-28T07:18:46.562Z,2.98
2023-03-28T07:21:16.528Z,2.95
2023-03-28T07:23:44.861Z,2.85
2023-03-28T07:26:13.245Z,2.95
2023-03-28T07:28:40.845Z,3.01
2023-03-28T07:31:09.033Z,3.11
2023-03-28T07:33:38.166Z,3.21
2023-03-28T07:36:15.097Z,3.26
2023-03-28T07:38:42.237Z,3.40
2023-03-28T07:41:11.517Z,3.56
2023-03-28T07:43:40.220Z,3.78
2023-03-28T07:46:10.096Z,4.06
2023-03-28T07:48:38.199Z,4.24
2023-03-28T07:51:06.440Z,4.37
2023-03-28T07:53:34.897Z,4.42
2023-03-28T07:56:02.009Z,4.59
2023-03-28T07:58:29.109Z,4.73
2023-03-28T08:00:56.372Z,4.86
2023-03-28T08:03:23.992Z,4.94
2023-03-28T08:05:52.027Z,5.03
2023-03-28T08:08:20.258Z,5.14
2023-03-28T08:10:51.539Z,5.12
2023-03-28T08:13:21.430Z,5.17
2023-03-28T08:15:55.030Z,5.25
2023-03-28T08:18:25.104Z,5.37
2023-03-28T08:20:58.907Z,5.55
2023-03-28T08:23:26.732Z,5.55
2023-03-28T08:26:06.083Z,5.58
2023-03-28T08:28:34.814Z,5.57
2023-03-28T08:31:02.884Z,5.54
2023-03-28T08:33:32.728Z,5.58
2023-03-28T08:36:00.003Z,5.61
2023-03-28T08:38:27.062Z,5.73
2023-03-28T08:41:07.153Z,5.65
2023-03-28T08:44:07.146Z,5.75
2023-03-28T08:46:36.173Z,5.73
2023-03-28T08:49:07.928Z,5.73
2023-03-28T08:51:44.318Z,5.94
2023-03-28T08:54:26.631Z,6.06
2023-03-28T08:56:57.150Z,5.97
2023-03-28T08:59:43.280Z,6.00
2023-03-28T09:02:31.375Z,6.07
2023-03-28T09:05:11.837Z,6.12
2023-03-28T09:07:59.607Z,6.17
2023-03-28T09:10:41.037Z,6.22
2023-03-28T09:13:13.675Z,6.22
2023-03-28T09:15:50.050Z,6.46
2023-03-28T09:19:05.323Z,6.52
2023-03-28T09:22:08.880Z,6.61
2023-03-28T09:25:08.759Z,6.56
2023-03-28T09:28:02.773Z,6.89
2023-03-28T09:30:34.128Z,7.15
2023-03-28T09:33:09.041Z,7.21
2023-03-28T09:35:36.990Z,7.27
2023-03-28T09:38:11.997Z,7.48
2023-03-28T09:40:46.949Z,7.55
2023-03-28T09:43:41.992Z,7.11
2023-03-28T09:46:14.946Z,7.17
2023-03-28T09:48:42.115Z,6.97
2023-03-28T09:51:16.091Z,6.92
2023-03-28T09:53:43.366Z,6.94
2023-03-28T09:56:17.765Z,7.10
2023-03-28T09:58:50.964Z,7.09
2023-03-28T10:01:36.300Z,7.20
2023-03-28T10:04:11.060Z,7.42
2023-03-28T10:06:40.282Z,7.54
2023-03-28T10:09:13.480Z,7.69
2023-03-28T10:11:55.428Z,7.58
2023-03-28T10:14:34.024Z,7.68
2023-03-28T10:17:07.577Z,7.74
2023-03-28T10:19:38.584Z,7.70
2023-03-28T10:22:10.901Z,7.89
2023-03-28T10:24:40.023Z,8.00
2023-03-28T10:27:25.674Z,8.13
2023-03-28T10:29:55.752Z,8.20
2023-03-28T10:32:30.890Z,8.02
2023-03-28T10:35:26.149Z,7.98
2023-03-28T10:38:03.471Z,7.99
2023-03-28T10:40:32.466Z,8.05
2023-03-28T10:42:59.882Z,7.93
2023-03-28T10:45:56.055Z,7.93
2023-03-28T10:48:29.342Z,7.94
2023-03-28T10:51:00.664Z,7.91
2023-03-28T10:53:52.843Z,7.94
2023-03-28T10:56:23.078Z,8.00
2023-03-28T10:59:29.625Z,8.02
2023-03-28T11:02:13.743Z,8.09
2023-03-28T11:04:54.111Z,8.03
2023-03-28T11:07:36.728Z,8.06
2023-03-28T11:10:32.579Z,8.10
2023-03-28T11:13:12.179Z,8.08
2023-03-28T11:15:58.430Z,7.93
2023-03-28T11:18:57.002Z,7.80
2023-03-28T11:21:52.859Z,7.66
2023-03-28T11:24:22.714Z,7.66
2023-03-28T11:27:16.335Z,7.72
2023-03-28T11:29:52.824Z,7.79
2023-03-28T11:32:40.699Z,8.02
2023-03-28T11:35:22.127Z,8.10
2023-03-28T11:38:01.125Z,8.13
2023-03-28T11:40:36.481Z,8.14
2023-03-28T11:43:06.437Z,8.05
2023-03-28T11:45:53.179Z,8.12
2023-03-28T11:48:36.125Z,8.49
2023-03-28T11:51:34.144Z,8.82
2023-03-28T11:54:21.231Z,8.85
2023-03-28T11:56:56.674Z,9.15
2023-03-28T11:59:31.126Z,9.06
2023-03-28T12:02:09.037Z,9.07
2023-03-28T12:04:45.873Z,9.20
2023-03-28T12:07:24.524Z,9.27
2023-03-28T12:10:17.345Z,9.29
2023-03-28T12:12:57.079Z,9.37
2023-03-28T12:15:52.325Z,9.27
2023-03-28T12:19:01.480Z,9.32
2023-03-28T12:21:35.246Z,9.24
2023-03-28T12:24:02.606Z,9.21
2023-03-28T12:26:38.322Z,9.28
2023-03-28T12:29:17.489Z,9.02
2023-03-28T12:31:53.932Z,8.97
2023-03-28T12:34:34.074Z,8.89
2023-03-28T12:37:12.086Z,8.80
2023-03-28T12:39:55.184Z,8.98
2023-03-28T12:42:24.763Z,9.07
2023-03-28T12:45:00.927Z,9.19
2023-03-28T12:47:38.963Z,9.27
2023-03-28T12:50:17.018Z,9.23
2023-03-28T12:52:46.730Z,9.24
2023-03-28T12:55:31.373Z,9.16
2023-03-28T12:58:20.252Z,9.21
2023-03-28T13:00:59.471Z,9.23
2023-03-28T13:03:35.275Z,9.08
2023-03-28T13:06:32.793Z,9.00
2023-03-28T13:09:23.311Z,8.86
2023-03-28T13:12:01.970Z,8.67
2023-03-28T13:14:42.460Z,8.52
2023-03-28T13:17:23.345Z,8.32
2023-03-28T13:19:53.527Z,8.34
2023-03-28T13:22:30.459Z,8.11
2023-03-28T13:25:22.843Z,8.02
2023-03-28T13:27:58.445Z,8.09
2023-03-28T13:30:28.795Z,8.06
2023-03-28T13:32:59.124Z,8.02
2023-03-28T13:35:48.971Z,8.11
2023-03-28T13:38:47.011Z,8.10
2023-03-28T13:41:35.938Z,8.30
2023-03-28T13:44:14.690Z,8.35
2023-03-28T13:46:43.451Z,8.46
2023-03-28T13:49:10.744Z,8.62
2023-03-28T13:52:04.869Z,8.71
2023-03-28T13:54:32.229Z,8.94
2023-03-28T13:57:08.361Z,9.16
2023-03-28T13:59:43.807Z,9.49
2023-03-28T14:02:18.424Z,9.54
2023-03-28T14:05:03.457Z,9.83
2023-03-28T14:07:30.740Z,10.08
2023-03-28T14:09:58.192Z,10.29
2023-03-28T14:12:29.440Z,10.36
2023-03-28T14:14:58.947Z,10.57
2023-03-28T14:17:33.323Z,10.79
2023-03-28T14:20:05.349Z,11.09
2023-03-28T14:22:45.720Z,10.98
2023-03-28T14:25:22.195Z,10.96
2023-03-28T14:27:51.998Z,10.87
2023-03-28T14:30:29.839Z,10.88
2023-03-28T14:33:07.297Z,10.62
2023-03-28T14:35:36.461Z,10.43
2023-03-28T14:38:07.209Z,10.37
2023-03-28T14:40:36.481Z,10.03
2023-03-28T14:43:20.243Z,9.98
2023-03-28T14:45:52.651Z,9.97
2023-03-28T14:48:26.615Z,9.89
2023-03-28T14:50:54.698Z,9.79
2023-03-28T14:53:27.631Z,9.76
2023-03-28T14:56:01.166Z,9.71
2023-03-28T14:58:30.598Z,9.61
2023-03-28T15:01:01.636Z,9.62
2023-03-28T15:03:42.474Z,9.58
2023-03-28T15:06:18.614Z,9.50
2023-03-28T15:08:46.600Z,9.43
2023-03-28T15:11:19.511Z,9.34
2023-03-28T15:13:50.379Z,9.29
2023-03-28T15:16:23.241Z,9.32
2023-03-28T15:19:18.071Z,9.22
2023-03-28T15:21:53.379Z,9.19
2023-03-28T15:24:21.130Z,9.15
2023-03-28T15:26:53.888Z,9.24
2023-03-28T15:29:25.090Z,9.18
2023-03-28T15:31:54.959Z,9.11
2023-03-28T15:34:27.224Z,9.27
2023-03-28T15:37:00.728Z,9.34
2023-03-28T15:39:31.936Z,9.31
2023-03-28T15:42:21.315Z,9.22
2023-03-28T15:44:57.405Z,9.14
2023-03-28T15:47:33.614Z,9.15
2023-03-28T15:50:04.914Z,9.09
2023-03-28T15:52:34.154Z,9.08
2023-03-28T15:55:03.109Z,9.04
2023-03-28T15:57:31.148Z,9.05
2023-03-28T15:59:58.713Z,8.93
2023-03-28T16:02:26.448Z,8.91
2023-03-28T16:05:00.918Z,8.82
2023-03-28T16:07:34.841Z,8.73
2023-03-28T16:10:02.715Z,8.78
2023-03-28T16:12:29.772Z,8.70
2023-03-28T16:14:56.849Z,8.70
2023-03-28T16:17:26.401Z,8.73
2023-03-28T16:19:53.577Z,8.73
2023-03-28T16:22:21.467Z,8.72
2023-03-28T16:24:50.380Z,8.67
2023-03-28T16:27:18.436Z,8.58
2023-03-28T16:29:45.784Z,8.33
2023-03-28T16:32:15.087Z,8.16
2023-03-28T16:34:43.193Z,8.11
2023-03-28T16:37:11.480Z,7.99
2023-03-28T16:39:39.031Z,7.97
2023-03-28T16:42:06.578Z,7.67
2023-03-28T16:44:33.856Z,7.34
2023-03-28T16:47:02.413Z,7.23
2023-03-28T16:49:29.769Z,7.21
2023-03-28T16:51:56.947Z,7.09
2023-03-28T16:54:24.324Z,7.05
2023-03-28T16:56:51.848Z,6.93
2023-03-28T16:59:20.121Z,6.87
2023-03-28T17:01:47.568Z,6.91
2023-03-28T17:04:14.806Z,6.88
2023-03-28T17:06:41.840Z,6.85
2023-03-28T17:09:09.197Z,6.87
2023-03-28T17:11:36.385Z,6.79
2023-03-28T17:14:03.770Z,6.80
2023-03-28T17:16:31.452Z,6.84
2023-03-28T17:18:58.588Z,6.88
2023-03-28T17:21:25.824Z,6.90
2023-03-28T17:23:52.893Z,6.93
2023-03-28T17:26:20.924Z,7.00
2023-03-28T17:28:47.999Z,7.05
2023-03-28T17:31:17.645Z,7.10
2023-03-28T17:33:46.386Z,7.05
2023-03-28T17:36:17.261Z,7.03
2023-03-28T17:38:46.531Z,7.06
2023-03-28T17:41:13.659Z,7.09
2023-03-28T17:43:41.450Z,7.11
2023-03-28T17:46:10.234Z,7.16
2023-03-28T17:48:41.229Z,7.06
2023-03-28T17:51:10.541Z,7.18
2023-03-28T17:53:42.718Z,7.15
2023-03-28T17:56:11.387Z,7.15
2023-03-28T17:58:39.803Z,7.15
2023-03-28T18:01:12.081Z,7.07
2023-03-28T18:03:39.508Z,7.05
2023-03-28T18:06:08.945Z,7.13
2023-03-28T18:08:36.584Z,7.21
2023-03-28T18:11:07.486Z,7.18
2023-03-28T18:13:38.416Z,7.23
2023-03-28T18:16:10.469Z,7.21
2023-03-28T18:18:39.272Z,7.19
2023-03-28T18:21:08.516Z,7.20
2023-03-28T18:23:36.632Z,7.20
2023-03-28T18:26:04.039Z,7.06
2023-03-28T18:28:31.302Z,7.10
2023-03-28T18:31:08.406Z,7.16
2023-03-28T18:33:35.721Z,7.21
2023-03-28T18:36:03.136Z,7.21
2023-03-28T18:38:38.422Z,7.20
2023-03-28T18:41:08.504Z,7.24
2023-03-28T18:43:37.551Z,7.26
2023-03-28T18:46:08.007Z,7.25
2023-03-28T18:48:36.202Z,7.28
2023-03-28T18:51:03.324Z,7.18
2023-03-28T18:53:30.498Z,7.17
2023-03-28T18:55:57.762Z,7.18
2023-03-28T18:58:26.222Z,7.13
2023-03-28T19:00:59.189Z,7.16
2023-03-28T19:03:28.100Z,7.22
2023-03-28T19:06:00.692Z,7.20
2023-03-28T19:08:30.914Z,7.21
2023-03-28T19:11:07.660Z,7.16
2023-03-28T19:13:34.784Z,7.17
2023-03-28T19:16:09.166Z,7.07
2023-03-28T19:18:43.443Z,7.00
2023-03-28T19:21:11.692Z,7.09
2023-03-28T19:23:40.036Z,7.04
2023-03-28T19:26:09.048Z,7.07
2023-03-28T19:28:36.344Z,7.07
2023-03-28T19:31:06.402Z,7.08
2023-03-28T19:33:33.657Z,7.06
2023-03-28T19:36:01.163Z,7.00
2023-03-28T19:38:30.765Z,7.08
2023-03-28T19:40:59.145Z,7.06
2023-03-28T19:43:27.362Z,7.02
2023-03-28T19:45:54.929Z,7.08
2023-03-28T19:48:22.293Z,6.92
2023-03-28T19:50:50.498Z,6.89
2023-03-28T19:53:17.573Z,6.69
2023-03-28T19:55:51.950Z,6.53
2023-03-28T19:58:19.062Z,6.51
2023-03-28T20:00:46.227Z,6.42
2023-03-28T20:03:13.394Z,6.30
2023-03-28T20:05:42.301Z,6.27
2023-03-28T20:08:09.387Z,6.23
2023-03-28T20:10:43.989Z,6.24
2023-03-28T20:13:11.084Z,6.24
2023-03-28T20:15:41.322Z,6.25
2023-03-28T20:18:19.499Z,6.20
2023-03-28T20:20:57.521Z,6.24
2023-03-28T20:23:26.058Z,6.29
2023-03-28T20:25:54.286Z,6.24
2023-03-28T20:28:26.471Z,6.20
2023-03-28T20:30:53.867Z,6.20
2023-03-28T20:33:21.735Z,6.24
2023-03-28T20:35:57.097Z,6.14
2023-03-28T20:38:25.477Z,6.17
2023-03-28T20:40:52.525Z,6.13
2023-03-28T20:43:26.703Z,6.18
2023-03-28T20:45:56.098Z,6.18
2023-03-28T20:48:34.807Z,6.14
2023-03-28T20:51:15.022Z,6.13
2023-03-28T20:53:47.680Z,6.02
2023-03-28T20:56:16.032Z,6.20
2023-03-28T20:58:44.059Z,6.17
2023-03-28T21:01:12.927Z,6.13
2023-03-28T21:03:50.277Z,5.98
2023-03-28T21:06:40.098Z,6.04
2023-03-28T21:09:14.339Z,6.04
2023-03-28T21:11:42.192Z,5.99
2023-03-28T21:14:13.473Z,6.04
2023-03-28T21:16:43.750Z,6.05
2023-03-28T21:19:10.879Z,6.06
2023-03-28T21:21:38.368Z,6.02
2023-03-28T21:24:07.434Z,5.95
2023-03-28T21:26:35.904Z,5.93
2023-03-28T21:29:03.674Z,5.89
2023-03-28T21:31:31.988Z,5.87
2023-03-28T21:33:59.773Z,5.83
2023-03-28T21:36:27.734Z,5.78
2023-03-28T21:38:56.065Z,5.81
2023-03-28T21:41:23.212Z,5.76
2023-03-28T21:43:51.860Z,5.73
2023-03-28T21:46:19.473Z,5.76
2023-03-28T21:48:48.284Z,5.69
2023-03-28T21:51:16.924Z,5.75
2023-03-28T21:53:44.711Z,5.71
2023-03-28T21:56:14.205Z,5.77
2023-03-28T21:58:41.693Z,5.68
2023-03-28T22:01:12.537Z,5.78
2023-03-28T22:03:40.380Z,5.81
2023-03-28T22:06:08.322Z,5.72
2023-03-28T22:08:35.512Z,5.74
2023-03-28T22:11:13.531Z,5.73
2023-03-28T22:13:41.887Z,5.84
2023-03-28T22:16:10.105Z,5.86
2023-03-28T22:18:37.397Z,5.80
2023-03-28T22:21:04.887Z,5.83
2023-03-28T22:23:32.025Z,5.90
2023-03-28T22:25:59.049Z,5.74
2023-03-28T22:28:26.176Z,5.68
2023-03-28T22:30:55.095Z,5.68
2023-03-28T22:33:23.586Z,5.64
2023-03-28T22:35:51.823Z,5.67
2023-03-28T22:38:19.527Z,5.58
2023-03-28T22:40:47.607Z,5.66
2023-03-28T22:43:16.006Z,5.55
2023-03-28T22:45:43.363Z,5.61
2023-03-28T22:48:17.028Z,5.62
2023-03-28T22:50:44.455Z,5.68
2023-03-28T22:53:12.806Z,5.67
2023-03-28T22:55:41.710Z,5.66
2023-03-28T22:58:09.164Z,5.70
2023-03-28T23:00:36.325Z,5.65
2023-03-28T23:03:04.057Z,5.67
2023-03-28T23:05:31.882Z,5.64
2023-03-28T23:07:59.924Z,5.65
2023-03-28T23:10:27.371Z,5.65
2023-03-28T23:12:54.423Z,5.68
2023-03-28T23:15:21.557Z,5.65
2023-03-28T23:17:48.984Z,5.60
2023-03-28T23:20:17.066Z,5.58
2023-03-28T23:22:46.322Z,5.60
2023-03-28T23:25:15.026Z,5.63
2023-03-28T23:27:42.933Z,5.61
2023-03-28T23:30:13.051Z,5.65
2023-03-28T23:32:40.803Z,5.60
2023-03-28T23:35:10.366Z,5.62
2023-03-28T23:37:38.302Z,5.65
2023-03-28T23:40:10.362Z,5.68
2023-03-28T23:42:37.757Z,5.70
2023-03-28T23:45:05.228Z,5.66
2023-03-28T23:47:32.354Z,5.54
2023-03-28T23:49:59.678Z,5.59
2023-03-28T23:52:27.111Z,5.61
2023-03-28T23:54:54.176Z,5.48
2023-03-28T23:57:24.912Z,5.53
2023-03-28T23:59:52.154Z,5.57
